createdAt,value
2022-08-24T00:02:02.967Z,22.10
2022-08-24T00:04:32.033Z,22.00
2022-08-24T00:07:00.705Z,22.00
2022-08-24T00:09:28.847Z,22.10
2022-08-24T00:11:57.183Z,22.10
2022-08-24T00:14:26.966Z,22.10
2022-08-24T00:16:55.556Z,22.10
2022-08-24T00:19:25.437Z,22.10
2022-08-24T00:21:54.025Z,22.00
2022-08-24T00:24:22.227Z,22.00
2022-08-24T00:26:56.720Z,22.00
2022-08-24T00:29:25.159Z,22.00
2022-08-24T00:31:54.062Z,21.90
2022-08-24T00:34:22.284Z,21.90
2022-08-24T00:36:51.855Z,21.90
2022-08-24T00:39:23.182Z,21.90
2022-08-24T00:41:52.032Z,21.90
2022-08-24T00:44:20.965Z,21.90
2022-08-24T00:46:51.345Z,21.90
2022-08-24T00:49:26.549Z,21.90
2022-08-24T00:52:01.379Z,21.90
2022-08-24T00:54:33.056Z,21.90
2022-08-24T00:57:03.547Z,21.80
2022-08-24T00:59:36.377Z,21.80
2022-08-24T01:02:15.179Z,21.80
2022-08-24T01:04:47.755Z,21.80
2022-08-24T01:07:26.315Z,21.80
2022-08-24T01:10:09.079Z,21.70
2022-08-24T01:13:00.493Z,21.70
2022-08-24T01:15:36.707Z,21.70
2022-08-24T01:18:24.203Z,21.70
2022-08-24T01:20:58.935Z,21.60
2022-08-24T01:23:43.970Z,21.70
2022-08-24T01:26:22.207Z,21.60
2022-08-24T01:29:01.947Z,21.60
2022-08-24T01:31:38.140Z,21.50
2022-08-24T01:34:20.358Z,21.50
2022-08-24T01:36:50.511Z,21.50
2022-08-24T01:39:21.956Z,21.50
2022-08-24T01:41:50.161Z,21.50
2022-08-24T01:44:18.473Z,21.50
2022-08-24T01:46:47.079Z,21.50
2022-08-24T01:49:16.588Z,21.50
2022-08-24T01:51:46.393Z,21.50
2022-08-24T01:54:14.974Z,21.40
2022-08-24T01:56:44.499Z,21.50
2022-08-24T01:59:16.941Z,21.40
2022-08-24T02:01:47.137Z,21.40
2022-08-24T02:04:17.812Z,21.40
2022-08-24T02:06:47.324Z,21.40
2022-08-24T02:09:15.543Z,21.40
2022-08-24T02:11:45.100Z,21.40
2022-08-24T02:14:14.599Z,21.40
2022-08-24T02:16:42.915Z,21.30
2022-08-24T02:19:11.066Z,21.30
2022-08-24T02:21:39.347Z,21.40
2022-08-24T02:24:08.542Z,21.30
2022-08-24T02:26:36.847Z,21.30
2022-08-24T02:29:08.361Z,21.30
2022-08-24T02:31:37.306Z,21.30
2022-08-24T02:34:05.570Z,21.30
2022-08-24T02:36:33.995Z,21.30
2022-08-24T02:39:02.743Z,21.20
2022-08-24T02:41:30.818Z,21.20
2022-08-24T02:43:59.038Z,21.20
2022-08-24T02:46:29.811Z,21.20
2022-08-24T02:49:11.374Z,21.20
2022-08-24T02:51:44.262Z,21.10
2022-08-24T02:54:12.857Z,21.20
2022-08-24T02:56:41.043Z,21.10
2022-08-24T02:59:09.307Z,21.10
2022-08-24T03:01:40.464Z,21.10
2022-08-24T03:04:09.012Z,21.10
2022-08-24T03:06:37.384Z,21.10
2022-08-24T03:09:05.634Z,21.10
2022-08-24T03:11:36.269Z,21.10
2022-08-24T03:14:04.376Z,21.00
2022-08-24T03:16:32.696Z,21.10
2022-08-24T03:19:02.252Z,21.00
2022-08-24T03:21:30.629Z,21.00
2022-08-24T03:23:58.787Z,21.00
2022-08-24T03:26:27.186Z,21.00
2022-08-24T03:28:55.318Z,21.00
2022-08-24T03:31:23.940Z,21.00
2022-08-24T03:33:53.520Z,21.00
2022-08-24T03:36:24.579Z,21.00
2022-08-24T03:38:53.285Z,20.90
2022-08-24T03:41:21.472Z,20.90
2022-08-24T03:43:49.825Z,20.90
2022-08-24T03:46:21.507Z,20.90
2022-08-24T03:48:50.445Z,20.90
2022-08-24T03:51:23.358Z,20.90
2022-08-24T03:53:54.261Z,20.90
2022-08-24T03:56:22.507Z,20.90
2022-08-24T03:58:50.673Z,20.90
2022-08-24T04:01:18.932Z,20.90
2022-08-24T04:03:47.893Z,20.90
2022-08-24T04:06:44.479Z,20.90
2022-08-24T04:09:14.556Z,20.90
2022-08-24T04:11:43.965Z,20.80
2022-08-24T04:14:27.471Z,20.80
2022-08-24T04:17:02.039Z,20.80
2022-08-24T04:19:34.177Z,20.80
2022-08-24T04:22:13.645Z,20.80
2022-08-24T04:24:43.375Z,20.70
2022-08-24T04:27:12.089Z,20.80
2022-08-24T04:29:40.419Z,20.80
2022-08-24T04:32:13.939Z,20.80
2022-08-24T04:34:42.380Z,20.80
2022-08-24T04:37:11.539Z,20.70
2022-08-24T04:39:40.117Z,20.70
2022-08-24T04:42:17.871Z,20.70
2022-08-24T04:44:50.466Z,20.70
2022-08-24T04:47:18.911Z,20.70
2022-08-24T04:49:47.311Z,20.70
2022-08-24T04:52:16.964Z,20.70
2022-08-24T04:54:45.281Z,20.70
2022-08-24T04:57:19.420Z,20.70
2022-08-24T04:59:47.693Z,20.70
2022-08-24T05:02:17.613Z,20.70
2022-08-24T05:04:46.855Z,20.80
2022-08-24T05:07:15.047Z,20.80
2022-08-24T05:09:43.404Z,20.80
2022-08-24T05:12:11.931Z,20.90
2022-08-24T05:14:42.342Z,20.90
2022-08-24T05:17:11.986Z,21.00
2022-08-24T05:19:40.865Z,21.00
2022-08-24T05:22:09.809Z,21.10
2022-08-24T05:24:48.155Z,21.10
2022-08-24T05:27:16.415Z,21.10
2022-08-24T05:29:48.703Z,21.20
2022-08-24T05:32:18.602Z,21.20
2022-08-24T05:34:46.753Z,21.30
2022-08-24T05:37:14.922Z,21.30
2022-08-24T05:39:46.040Z,21.30
2022-08-24T05:42:16.507Z,21.30
2022-08-24T05:44:44.611Z,21.40
2022-08-24T05:47:14.383Z,21.40
2022-08-24T05:49:43.414Z,21.40
2022-08-24T05:52:11.857Z,21.40
2022-08-24T05:54:41.761Z,21.40
2022-08-24T05:57:15.313Z,21.50
2022-08-24T05:59:43.633Z,21.50
2022-08-24T06:02:14.103Z,21.60
2022-08-24T06:04:42.517Z,21.70
2022-08-24T06:07:11.476Z,21.80
2022-08-24T06:09:40.094Z,21.70
2022-08-24T06:12:08.792Z,21.80
2022-08-24T06:14:37.341Z,21.90
2022-08-24T06:17:06.051Z,22.00
2022-08-24T06:19:36.907Z,22.00
2022-08-24T06:22:05.522Z,22.10
2022-08-24T06:24:52.254Z,22.20
2022-08-24T06:27:23.522Z,22.30
2022-08-24T06:29:53.221Z,22.30
2022-08-24T06:32:22.809Z,22.30
2022-08-24T06:34:56.701Z,22.40
2022-08-24T06:37:29.240Z,22.50
2022-08-24T06:39:58.806Z,22.50
2022-08-24T06:42:32.597Z,22.50
2022-08-24T06:45:02.475Z,22.60
2022-08-24T06:47:40.371Z,22.70
2022-08-24T06:50:11.396Z,22.70
2022-08-24T06:52:41.290Z,22.80
2022-08-24T06:55:16.296Z,22.90
2022-08-24T06:57:47.053Z,23.00
2022-08-24T07:00:18.641Z,23.00
2022-08-24T07:02:50.926Z,23.10
2022-08-24T07:05:20.687Z,23.20
2022-08-24T07:07:48.833Z,23.40
2022-08-24T07:10:23.066Z,23.60
2022-08-24T07:12:55.218Z,23.90
2022-08-24T07:15:23.460Z,24.40
2022-08-24T07:17:51.647Z,24.70
2022-08-24T07:20:21.423Z,24.80
2022-08-24T07:22:49.579Z,24.90
2022-08-24T07:25:19.538Z,25.00
2022-08-24T07:27:48.969Z,25.10
2022-08-24T07:30:27.412Z,25.40
2022-08-24T07:32:58.122Z,25.60
2022-08-24T07:35:35.869Z,25.70
2022-08-24T07:38:05.016Z,25.80
2022-08-24T07:41:05.113Z,25.90
2022-08-24T07:43:27.965Z,26.00
2022-08-24T07:45:56.169Z,26.10
2022-08-24T07:48:24.512Z,26.10
2022-08-24T07:50:54.417Z,26.20
2022-08-24T07:53:37.876Z,26.30
2022-08-24T07:56:21.057Z,26.40
2022-08-24T07:58:49.819Z,26.30
2022-08-24T08:01:23.459Z,26.30
2022-08-24T08:03:51.974Z,26.30
2022-08-24T08:06:27.810Z,26.30
2022-08-24T08:08:57.220Z,26.30
2022-08-24T08:11:25.668Z,26.40
2022-08-24T08:13:54.670Z,26.50
2022-08-24T08:16:22.958Z,26.60
2022-08-24T08:18:56.514Z,26.70
2022-08-24T08:22:02.789Z,26.90
2022-08-24T08:24:35.377Z,27.10
2022-08-24T08:27:11.019Z,27.30
2022-08-24T08:29:49.501Z,27.50
2022-08-24T08:32:20.199Z,27.70
2022-08-24T08:34:48.659Z,27.80
2022-08-24T08:37:19.769Z,27.90
2022-08-24T08:39:48.433Z,28.00
2022-08-24T08:42:44.569Z,28.20
2022-08-24T08:45:26.874Z,28.40
2022-08-24T08:48:33.337Z,28.40
2022-08-24T08:51:28.804Z,28.50
2022-08-24T08:54:18.095Z,28.70
2022-08-24T08:56:57.213Z,28.80
2022-08-24T08:59:41.583Z,28.90
2022-08-24T09:02:17.613Z,29.10
2022-08-24T09:05:04.310Z,29.20
2022-08-24T09:07:43.550Z,29.20
2022-08-24T09:10:38.927Z,29.30
2022-08-24T09:13:13.121Z,29.40
2022-08-24T09:16:08.335Z,29.60
2022-08-24T09:18:48.793Z,29.60
2022-08-24T09:21:48.513Z,29.60
2022-08-24T09:24:32.146Z,29.70
2022-08-24T09:27:07.321Z,29.80
2022-08-24T09:29:44.901Z,30.00
2022-08-24T09:32:29.185Z,30.20
2022-08-24T09:34:59.904Z,30.50
2022-08-24T09:37:33.844Z,30.60
2022-08-24T09:40:05.988Z,30.60
2022-08-24T09:43:09.000Z,30.50
2022-08-24T09:45:52.160Z,30.30
2022-08-24T09:48:47.617Z,30.30
2022-08-24T09:51:46.690Z,30.30
2022-08-24T09:54:45.313Z,30.50
2022-08-24T09:57:59.551Z,30.80
2022-08-24T10:00:30.237Z,30.90
2022-08-24T10:03:12.318Z,31.10
2022-08-24T10:06:13.335Z,31.10
2022-08-24T10:09:06.527Z,31.00
2022-08-24T10:11:47.735Z,31.00
2022-08-24T10:14:20.153Z,31.10
2022-08-24T10:16:54.462Z,31.20
2022-08-24T10:19:46.345Z,31.30
2022-08-24T10:22:23.543Z,31.30
2022-08-24T10:25:04.480Z,31.40
2022-08-24T10:27:53.781Z,31.50
2022-08-24T10:30:49.283Z,31.60
2022-08-24T10:33:22.339Z,31.80
2022-08-24T10:36:32.945Z,32.00
2022-08-24T10:39:27.682Z,32.20
2022-08-24T10:42:48.851Z,32.10
2022-08-24T10:45:19.494Z,32.10
2022-08-24T10:48:00.457Z,32.20
2022-08-24T10:50:34.187Z,32.30
2022-08-24T10:53:18.066Z,32.40
2022-08-24T10:55:46.681Z,32.50
2022-08-24T10:58:56.485Z,32.60
2022-08-24T11:01:28.121Z,32.70
2022-08-24T11:04:00.500Z,32.80
2022-08-24T11:06:35.729Z,32.90
2022-08-24T11:09:07.522Z,33.10
2022-08-24T11:11:38.583Z,33.30
2022-08-24T11:14:10.321Z,33.60
2022-08-24T11:16:39.939Z,33.70
2022-08-24T11:19:10.984Z,33.80
2022-08-24T11:21:48.833Z,34.10
2022-08-24T11:24:32.339Z,34.30
2022-08-24T11:27:01.994Z,34.50
2022-08-24T11:29:50.031Z,34.30
2022-08-24T11:32:31.884Z,34.10
2022-08-24T11:35:07.665Z,33.80
2022-08-24T11:37:38.225Z,33.40
2022-08-24T11:40:08.959Z,33.00
2022-08-24T11:42:44.456Z,32.50
2022-08-24T11:45:16.084Z,32.20
2022-08-24T11:47:55.823Z,31.90
2022-08-24T11:50:30.212Z,31.80
2022-08-24T11:53:14.675Z,31.60
2022-08-24T11:55:51.603Z,31.50
2022-08-24T11:58:32.296Z,31.30
2022-08-24T12:01:04.135Z,31.30
2022-08-24T12:03:47.418Z,31.40
2022-08-24T12:06:27.638Z,31.50
2022-08-24T12:09:07.124Z,31.80
2022-08-24T12:11:40.870Z,32.10
2022-08-24T12:14:17.050Z,32.30
2022-08-24T12:16:48.578Z,32.50
2022-08-24T12:19:18.234Z,33.00
2022-08-24T12:21:48.270Z,33.60
2022-08-24T12:24:19.850Z,34.10
2022-08-24T12:26:53.704Z,34.50
2022-08-24T12:29:24.394Z,35.00
2022-08-24T12:31:56.240Z,35.20
2022-08-24T12:34:29.348Z,35.20
2022-08-24T12:37:01.949Z,35.30
2022-08-24T12:39:40.527Z,35.50
2022-08-24T12:42:16.927Z,35.50
2022-08-24T12:44:48.919Z,35.20
2022-08-24T12:47:22.585Z,34.80
2022-08-24T12:49:54.485Z,34.30
2022-08-24T12:52:54.075Z,33.90
2022-08-24T12:55:36.952Z,33.60
2022-08-24T12:58:30.903Z,33.20
2022-08-24T13:01:05.890Z,32.90
2022-08-24T13:03:37.360Z,32.70
2022-08-24T13:06:14.160Z,32.50
2022-08-24T13:08:46.948Z,32.30
2022-08-24T13:11:30.299Z,32.20
2022-08-24T13:14:22.351Z,32.20
2022-08-24T13:17:13.448Z,32.10
2022-08-24T13:19:44.976Z,32.10
2022-08-24T13:22:43.644Z,32.00
2022-08-24T13:25:57.934Z,32.00
2022-08-24T13:28:35.015Z,31.90
2022-08-24T13:31:33.228Z,31.90
2022-08-24T13:34:25.146Z,31.80
2022-08-24T13:37:03.539Z,31.70
2022-08-24T13:40:00.614Z,31.60
2022-08-24T13:42:48.196Z,31.50
2022-08-24T13:45:24.966Z,31.40
2022-08-24T13:48:05.715Z,31.30
2022-08-24T13:50:40.755Z,31.30
2022-08-24T13:54:01.331Z,31.30
2022-08-24T13:56:49.271Z,31.30
2022-08-24T13:59:24.196Z,31.20
2022-08-24T14:02:05.120Z,31.30
2022-08-24T14:04:51.639Z,31.30
2022-08-24T14:07:29.151Z,31.30
2022-08-24T14:10:03.202Z,31.30
2022-08-24T14:12:55.307Z,31.30
2022-08-24T14:15:29.927Z,31.30
2022-08-24T14:18:09.765Z,31.30
2022-08-24T14:20:57.775Z,31.30
2022-08-24T14:23:35.190Z,31.20
2022-08-24T14:26:40.588Z,31.10
2022-08-24T14:29:27.622Z,31.00
2022-08-24T14:32:35.073Z,31.00
2022-08-24T14:35:32.560Z,31.10
2022-08-24T14:38:28.662Z,31.10
2022-08-24T14:41:21.068Z,31.10
2022-08-24T14:44:10.420Z,31.10
2022-08-24T14:46:57.844Z,31.10
2022-08-24T14:49:44.425Z,31.20
2022-08-24T14:52:52.658Z,31.20
2022-08-24T14:55:32.129Z,31.20
2022-08-24T14:58:14.144Z,31.30
2022-08-24T15:00:57.384Z,31.30
2022-08-24T15:04:06.220Z,31.40
2022-08-24T15:06:41.920Z,31.40
2022-08-24T15:09:29.752Z,31.40
2022-08-24T15:12:03.947Z,31.40
2022-08-24T15:14:38.587Z,31.40
2022-08-24T15:17:09.629Z,31.20
2022-08-24T15:19:52.441Z,31.20
2022-08-24T15:22:27.073Z,31.10
2022-08-24T15:25:07.583Z,31.10
2022-08-24T15:27:45.379Z,31.10
2022-08-24T15:30:20.992Z,31.00
2022-08-24T15:32:51.221Z,31.10
2022-08-24T15:35:31.255Z,31.20
2022-08-24T15:38:26.054Z,31.50
2022-08-24T15:41:06.200Z,31.90
2022-08-24T15:43:35.644Z,32.30
2022-08-24T15:46:07.550Z,32.60
2022-08-24T15:48:36.964Z,32.90
2022-08-24T15:51:05.868Z,33.00
2022-08-24T15:53:44.427Z,33.10
2022-08-24T15:56:46.655Z,33.10
2022-08-24T15:59:28.350Z,33.30
2022-08-24T16:02:29.356Z,33.30
2022-08-24T16:05:22.405Z,33.40
2022-08-24T16:08:07.930Z,33.50
2022-08-24T16:10:42.108Z,33.60
2022-08-24T16:13:25.273Z,33.50
2022-08-24T16:16:06.171Z,33.60
2022-08-24T16:18:52.753Z,33.70
2022-08-24T16:21:24.996Z,33.50
2022-08-24T16:23:55.835Z,33.30
2022-08-24T16:26:28.314Z,33.00
2022-08-24T16:28:58.573Z,32.70
2022-08-24T16:31:50.479Z,32.30
2022-08-24T16:34:32.938Z,32.10
2022-08-24T16:37:01.246Z,31.90
2022-08-24T16:39:39.735Z,31.80
2022-08-24T16:42:12.161Z,31.60
2022-08-24T16:44:47.696Z,31.50
2022-08-24T16:47:16.375Z,31.50
2022-08-24T16:49:45.120Z,31.50
2022-08-24T16:52:17.423Z,31.40
2022-08-24T16:54:45.981Z,31.30
2022-08-24T16:57:18.474Z,31.20
2022-08-24T16:59:48.868Z,31.10
2022-08-24T17:02:19.684Z,31.10
2022-08-24T17:04:56.152Z,31.10
2022-08-24T17:07:26.356Z,31.00
2022-08-24T17:10:05.829Z,31.00
2022-08-24T17:12:37.188Z,31.00
2022-08-24T17:15:08.071Z,31.00
2022-08-24T17:17:39.313Z,30.90
2022-08-24T17:20:10.450Z,30.80
2022-08-24T17:22:40.034Z,30.70
2022-08-24T17:25:17.769Z,30.60
2022-08-24T17:27:46.247Z,30.40
2022-08-24T17:30:21.541Z,30.20
2022-08-24T17:32:58.379Z,30.00
2022-08-24T17:35:38.782Z,29.80
2022-08-24T17:38:18.422Z,29.60
2022-08-24T17:40:53.849Z,29.40
2022-08-24T17:43:25.928Z,29.20
2022-08-24T17:45:57.335Z,29.20
2022-08-24T17:48:28.005Z,29.00
2022-08-24T17:51:09.196Z,28.90
2022-08-24T17:53:38.005Z,28.80
2022-08-24T17:56:07.544Z,28.60
2022-08-24T17:58:58.270Z,28.50
2022-08-24T18:01:40.730Z,28.40
2022-08-24T18:04:09.085Z,28.30
2022-08-24T18:06:37.865Z,28.20
2022-08-24T18:09:09.216Z,28.10
2022-08-24T18:11:37.701Z,28.10
2022-08-24T18:14:09.263Z,28.00
2022-08-24T18:16:39.787Z,27.90
2022-08-24T18:19:11.708Z,27.80
2022-08-24T18:21:40.227Z,27.80
2022-08-24T18:24:12.682Z,27.70
2022-08-24T18:29:44.984Z,27.60
2022-08-24T18:32:30.087Z,27.50
2022-08-24T18:35:07.587Z,27.50
2022-08-24T18:37:37.835Z,27.40
2022-08-24T18:40:08.900Z,27.30
2022-08-24T18:42:44.799Z,27.30
2022-08-24T18:45:17.939Z,27.20
2022-08-24T18:47:53.152Z,27.20
2022-08-24T18:50:25.795Z,27.10
2022-08-24T18:52:56.578Z,27.10
2022-08-24T18:55:27.090Z,27.10
2022-08-24T18:57:57.770Z,27.00
2022-08-24T19:00:29.716Z,27.00
2022-08-24T19:03:01.839Z,26.90
2022-08-24T19:05:31.611Z,26.90
2022-08-24T19:08:02.296Z,26.90
2022-08-24T19:10:33.752Z,26.80
2022-08-24T19:13:03.642Z,26.80
2022-08-24T19:15:40.271Z,26.70
2022-08-24T19:18:16.020Z,26.70
2022-08-24T19:20:52.193Z,26.60
2022-08-24T19:23:25.235Z,26.50
2022-08-24T19:25:54.847Z,26.50
2022-08-24T19:28:25.599Z,26.40
2022-08-24T19:30:55.349Z,26.40
2022-08-24T19:33:26.624Z,26.40
2022-08-24T19:35:54.831Z,26.30
2022-08-24T19:38:26.103Z,26.20
2022-08-24T19:40:58.209Z,26.20
2022-08-24T19:43:27.489Z,26.20
2022-08-24T19:46:05.697Z,26.10
2022-08-24T19:48:38.384Z,26.10
2022-08-24T19:51:07.238Z,26.00
2022-08-24T19:53:36.730Z,25.90
2022-08-24T19:56:05.525Z,25.90
2022-08-24T19:58:39.251Z,25.90
2022-08-24T20:09:10.719Z,25.70
2022-08-24T20:11:52.621Z,25.60
2022-08-24T20:14:39.886Z,25.60
2022-08-24T20:17:08.306Z,25.50
2022-08-24T20:19:39.455Z,25.50
2022-08-24T20:22:13.039Z,25.50
2022-08-24T20:24:55.897Z,25.40
2022-08-24T20:27:29.892Z,25.40
2022-08-24T20:30:01.821Z,25.40
2022-08-24T20:32:32.018Z,25.40
2022-08-24T20:35:09.362Z,25.40
2022-08-24T20:37:42.563Z,25.30
2022-08-24T20:40:30.057Z,25.30
2022-08-24T20:43:00.735Z,25.20
2022-08-24T20:45:31.095Z,25.20
2022-08-24T20:48:13.135Z,25.10
2022-08-24T20:50:43.537Z,25.10
2022-08-24T20:53:12.125Z,25.10
2022-08-24T20:55:44.258Z,25.10
2022-08-24T20:58:19.116Z,25.10
2022-08-24T21:01:01.435Z,25.00
2022-08-24T21:03:31.927Z,25.00
2022-08-24T21:06:01.568Z,25.00
2022-08-24T21:08:29.885Z,24.90
2022-08-24T21:10:59.654Z,25.00
2022-08-24T21:13:27.979Z,25.00
2022-08-24T21:15:58.759Z,25.00
2022-08-24T21:18:30.590Z,25.00
2022-08-24T21:21:03.905Z,25.00
2022-08-24T21:23:39.199Z,25.00
2022-08-24T21:26:23.170Z,25.00
2022-08-24T21:28:56.373Z,25.10
2022-08-24T21:31:27.868Z,25.00
2022-08-24T21:34:19.923Z,25.00
2022-08-24T21:36:56.498Z,25.00
2022-08-24T21:39:24.910Z,25.00
2022-08-24T21:42:13.647Z,24.90
2022-08-24T21:44:48.733Z,25.00
2022-08-24T21:47:20.342Z,24.90
2022-08-24T21:49:49.006Z,24.80
2022-08-24T21:52:17.420Z,24.90
2022-08-24T21:54:45.600Z,24.80
2022-08-24T21:57:15.675Z,24.80
2022-08-24T21:59:48.901Z,24.80
2022-08-24T22:02:20.525Z,24.80
2022-08-24T22:04:56.308Z,24.80
2022-08-24T22:07:26.710Z,24.80
2022-08-24T22:09:55.426Z,24.80
2022-08-24T22:12:25.104Z,24.80
2022-08-24T22:14:53.360Z,24.80
2022-08-24T22:17:21.652Z,24.80
2022-08-24T22:20:00.073Z,24.90
2022-08-24T22:22:28.957Z,24.80
2022-08-24T22:25:12.887Z,24.80
2022-08-24T22:27:53.789Z,24.80
2022-08-24T22:30:25.442Z,24.80
2022-08-24T22:32:53.847Z,24.80
2022-08-24T22:35:28.404Z,24.80
2022-08-24T22:38:01.242Z,24.80
2022-08-24T22:40:41.470Z,24.80
2022-08-24T22:43:11.730Z,24.80
2022-08-24T22:45:40.144Z,24.80
2022-08-24T22:48:08.843Z,24.80
2022-08-24T22:50:43.557Z,24.80
2022-08-24T22:53:13.892Z,24.80
2022-08-24T22:55:42.476Z,24.80
2022-08-24T22:58:12.277Z,24.70
2022-08-24T23:00:47.022Z,24.70
2022-08-24T23:03:15.549Z,24.70
2022-08-24T23:05:45.222Z,24.70
2022-08-24T23:08:14.142Z,24.70
2022-08-24T23:10:51.657Z,24.70
2022-08-24T23:13:28.533Z,24.70
2022-08-24T23:16:02.664Z,24.70
2022-08-24T23:19:00.050Z,24.70
2022-08-24T23:21:37.594Z,24.70
2022-08-24T23:24:21.069Z,24.70
2022-08-24T23:27:20.033Z,24.60
2022-08-24T23:29:52.594Z,24.60
2022-08-24T23:32:20.909Z,24.60
2022-08-24T23:34:49.066Z,24.60
2022-08-24T23:37:17.423Z,24.60
2022-08-24T23:39:45.905Z,24.60
2022-08-24T23:42:14.515Z,24.60
2022-08-24T23:44:42.819Z,24.50
2022-08-24T23:47:15.545Z,24.50
2022-08-24T23:49:44.084Z,24.50
2022-08-24T23:52:26.603Z,24.50
2022-08-24T23:55:03.590Z,24.50
2022-08-24T23:57:45.633Z,24.50
